Terminal Aerodrome Forecast
Issued by NWS Bismarck, ND

Home | Current Version | Previous Version | Text Only | Print | Product List | Glossary On
Versions: 1 2 3 4 5 6 7 8 9 10 11 12 13 14 15 16
000
FTUS43 KBIS 231120
TAFBIS
TAF
KBIS 231120Z 2312/2412 34015G23KT P6SM OVC100
     FM231600 01014G23KT P6SM BKN080
     FM232300 03009KT P6SM SCT110
     FM240300 07004KT P6SM FEW200
     FM240900 14004KT P6SM FEW250=

USA.gov is the U.S. government's official web portal to all federal, state and local government web resources and services.